sensor_id;sensor_type;location;lat;lon;timestamp;noise_LAeq;noise_LA_min;noise_LA_max;noise_LA01;noise_LA95
50333;Laerm;36239;48.132;-1.210;2023-07-28T00:00:10;45.94;41.82;58.85;;
50333;Laerm;36239;48.132;-1.210;2023-07-28T00:02:36;44.15;40.98;50.54;;
50333;Laerm;36239;48.132;-1.210;2023-07-28T00:05:02;41.90;37.88;47.81;;
50333;Laerm;36239;48.132;-1.210;2023-07-28T00:07:28;39.63;36.69;48.26;;
50333;Laerm;36239;48.132;-1.210;2023-07-28T00:09:54;38.81;35.66;45.11;;
50333;Laerm;36239;48.132;-1.210;2023-07-28T00:12:20;39.84;35.04;48.25;;
50333;Laerm;36239;48.132;-1.210;2023-07-28T00:14:47;41.30;35.04;55.55;;
50333;Laerm;36239;48.132;-1.210;2023-07-28T00:17:13;38.53;34.69;48.78;;
50333;Laerm;36239;48.132;-1.210;2023-07-28T00:19:39;39.57;34.31;60.03;;
50333;Laerm;36239;48.132;-1.210;2023-07-28T00:22:05;38.68;35.04;52.54;;
50333;Laerm;36239;48.132;-1.210;2023-07-28T00:24:31;38.38;33.90;44.90;;
50333;Laerm;36239;48.132;-1.210;2023-07-28T00:26:57;38.26;33.90;44.01;;
50333;Laerm;36239;48.132;-1.210;2023-07-28T00:29:23;38.15;34.31;47.32;;
50333;Laerm;36239;48.132;-1.210;2023-07-28T00:31:49;38.21;32.93;47.67;;
50333;Laerm;36239;48.132;-1.210;2023-07-28T00:34:15;38.14;34.69;45.89;;
50333;Laerm;36239;48.132;-1.210;2023-07-28T00:36:41;39.34;34.31;67.90;;
50333;Laerm;36239;48.132;-1.210;2023-07-28T00:39:07;37.96;33.90;46.62;;
50333;Laerm;36239;48.132;-1.210;2023-07-28T00:41:33;37.85;33.09;44.03;;
50333;Laerm;36239;48.132;-1.210;2023-07-28T00:43:59;38.09;33.90;49.81;;
50333;Laerm;36239;48.132;-1.210;2023-07-28T00:46:25;51.83;33.44;82.92;;
50333;Laerm;36239;48.132;-1.210;2023-07-28T00:48:51;39.43;35.59;45.83;;
50333;Laerm;36239;48.132;-1.210;2023-07-28T00:51:17;39.05;35.94;48.37;;
50333;Laerm;36239;48.132;-1.210;2023-07-28T00:53:43;38.61;34.69;49.59;;
50333;Laerm;36239;48.132;-1.210;2023-07-28T00:56:09;38.79;35.04;47.04;;
50333;Laerm;36239;48.132;-1.210;2023-07-28T00:58:36;39.29;35.59;49.85;;
50333;Laerm;36239;48.132;-1.210;2023-07-28T01:01:02;39.47;35.66;49.70;;
50333;Laerm;36239;48.132;-1.210;2023-07-28T01:03:28;39.48;35.94;53.31;;
50333;Laerm;36239;48.132;-1.210;2023-07-28T01:05:57;39.60;36.45;48.81;;
50333;Laerm;36239;48.132;-1.210;2023-07-28T01:08:36;40.31;36.91;46.63;;
50333;Laerm;36239;48.132;-1.210;2023-07-28T01:11:04;40.01;36.45;62.36;;
50333;Laerm;36239;48.132;-1.210;2023-07-28T01:13:30;39.63;36.20;48.95;;
50333;Laerm;36239;48.132;-1.210;2023-07-28T01:15:56;39.77;35.66;49.72;;
50333;Laerm;36239;48.132;-1.210;2023-07-28T01:18:23;39.68;35.94;47.40;;
50333;Laerm;36239;48.132;-1.210;2023-07-28T01:20:49;39.48;34.31;51.04;;
50333;Laerm;36239;48.132;-1.210;2023-07-28T01:23:26;39.06;35.94;46.97;;
50333;Laerm;36239;48.132;-1.210;2023-07-28T01:25:58;39.21;35.04;48.00;;
50333;Laerm;36239;48.132;-1.210;2023-07-28T01:28:29;39.17;35.66;48.85;;
50333;Laerm;36239;48.132;-1.210;2023-07-28T01:30:56;39.20;35.66;47.70;;
50333;Laerm;36239;48.132;-1.210;2023-07-28T01:33:22;39.15;35.94;54.99;;
50333;Laerm;36239;48.132;-1.210;2023-07-28T01:35:48;38.73;35.36;50.27;;
50333;Laerm;36239;48.132;-1.210;2023-07-28T01:38:14;39.24;35.04;61.10;;
50333;Laerm;36239;48.132;-1.210;2023-07-28T01:40:41;38.28;34.69;44.69;;
50333;Laerm;36239;48.132;-1.210;2023-07-28T01:43:07;38.28;35.04;45.97;;
50333;Laerm;36239;48.132;-1.210;2023-07-28T01:45:33;38.50;33.90;47.50;;
50333;Laerm;36239;48.132;-1.210;2023-07-28T01:47:59;38.39;33.90;47.59;;
50333;Laerm;36239;48.132;-1.210;2023-07-28T01:50:25;38.34;34.31;50.52;;
50333;Laerm;36239;48.132;-1.210;2023-07-28T01:52:51;38.37;34.69;44.73;;
50333;Laerm;36239;48.132;-1.210;2023-07-28T01:55:17;38.15;33.90;44.23;;
50333;Laerm;36239;48.132;-1.210;2023-07-28T01:57:49;38.22;34.31;46.03;;
50333;Laerm;36239;48.132;-1.210;2023-07-28T02:00:16;38.32;34.69;48.26;;
50333;Laerm;36239;48.132;-1.210;2023-07-28T02:02:42;38.54;35.36;44.08;;
50333;Laerm;36239;48.132;-1.210;2023-07-28T02:05:08;38.84;35.36;46.35;;
50333;Laerm;36239;48.132;-1.210;2023-07-28T02:07:34;38.91;35.36;45.99;;
50333;Laerm;36239;48.132;-1.210;2023-07-28T02:10:00;39.48;35.04;48.57;;
50333;Laerm;36239;48.132;-1.210;2023-07-28T02:12:26;39.04;35.04;50.73;;
50333;Laerm;36239;48.132;-1.210;2023-07-28T02:14:52;38.43;34.69;45.11;;
50333;Laerm;36239;48.132;-1.210;2023-07-28T02:17:18;39.11;35.04;55.54;;
50333;Laerm;36239;48.132;-1.210;2023-07-28T02:19:44;39.33;35.94;56.37;;
50333;Laerm;36239;48.132;-1.210;2023-07-28T02:22:10;38.96;35.66;51.11;;
50333;Laerm;36239;48.132;-1.210;2023-07-28T02:24:37;38.82;35.36;46.43;;
50333;Laerm;36239;48.132;-1.210;2023-07-28T02:27:03;38.73;35.04;51.95;;
50333;Laerm;36239;48.132;-1.210;2023-07-28T02:29:29;39.06;35.36;46.52;;
50333;Laerm;36239;48.132;-1.210;2023-07-28T02:31:55;38.80;35.36;49.00;;
50333;Laerm;36239;48.132;-1.210;2023-07-28T02:34:21;38.55;34.69;43.44;;
50333;Laerm;36239;48.132;-1.210;2023-07-28T02:36:47;37.93;34.69;43.77;;
50333;Laerm;36239;48.132;-1.210;2023-07-28T02:39:13;37.97;33.44;44.69;;
50333;Laerm;36239;48.132;-1.210;2023-07-28T02:41:39;38.40;34.69;45.36;;
50333;Laerm;36239;48.132;-1.210;2023-07-28T02:44:05;38.48;34.31;44.03;;
50333;Laerm;36239;48.132;-1.210;2023-07-28T02:46:31;38.46;35.04;45.75;;
50333;Laerm;36239;48.132;-1.210;2023-07-28T02:48:57;38.25;35.04;42.76;;
50333;Laerm;36239;48.132;-1.210;2023-07-28T02:51:23;38.29;34.31;50.12;;
50333;Laerm;36239;48.132;-1.210;2023-07-28T02:53:49;37.97;33.90;46.62;;
50333;Laerm;36239;48.132;-1.210;2023-07-28T02:56:15;38.80;34.69;45.94;;
50333;Laerm;36239;48.132;-1.210;2023-07-28T02:58:41;38.03;34.31;45.75;;
50333;Laerm;36239;48.132;-1.210;2023-07-28T03:01:07;38.29;33.44;49.92;;
50333;Laerm;36239;48.132;-1.210;2023-07-28T03:03:33;38.03;33.90;43.09;;
50333;Laerm;36239;48.132;-1.210;2023-07-28T03:05:59;38.10;34.31;42.22;;
50333;Laerm;36239;48.132;-1.210;2023-07-28T03:08:25;38.53;34.31;51.40;;
50333;Laerm;36239;48.132;-1.210;2023-07-28T03:10:55;38.75;33.90;46.82;;
50333;Laerm;36239;48.132;-1.210;2023-07-28T03:13:21;38.54;34.31;47.91;;
50333;Laerm;36239;48.132;-1.210;2023-07-28T03:15:47;38.20;34.31;43.09;;
50333;Laerm;36239;48.132;-1.210;2023-07-28T03:18:13;38.24;34.31;43.63;;
50333;Laerm;36239;48.132;-1.210;2023-07-28T03:20:39;40.56;37.12;45.39;;
50333;Laerm;36239;48.132;-1.210;2023-07-28T03:23:05;39.30;35.94;48.46;;
50333;Laerm;36239;48.132;-1.210;2023-07-28T03:25:32;38.90;33.44;46.15;;
50333;Laerm;36239;48.132;-1.210;2023-07-28T03:27:58;39.59;35.36;59.17;;
50333;Laerm;36239;48.132;-1.210;2023-07-28T03:30:24;39.10;34.69;49.73;;
50333;Laerm;36239;48.132;-1.210;2023-07-28T03:32:50;39.26;35.66;47.42;;
50333;Laerm;36239;48.132;-1.210;2023-07-28T03:35:16;39.43;36.20;44.94;;
50333;Laerm;36239;48.132;-1.210;2023-07-28T03:37:42;39.21;35.66;46.64;;
50333;Laerm;36239;48.132;-1.210;2023-07-28T03:40:08;38.97;34.69;44.58;;
50333;Laerm;36239;48.132;-1.210;2023-07-28T03:42:34;40.10;35.66;51.79;;
50333;Laerm;36239;48.132;-1.210;2023-07-28T03:45:00;39.01;34.31;45.01;;
50333;Laerm;36239;48.132;-1.210;2023-07-28T03:47:26;38.63;35.04;43.90;;
50333;Laerm;36239;48.132;-1.210;2023-07-28T03:49:52;38.27;34.31;43.19;;
50333;Laerm;36239;48.132;-1.210;2023-07-28T03:52:18;39.18;34.69;65.34;;
50333;Laerm;36239;48.132;-1.210;2023-07-28T03:54:44;38.55;34.31;60.42;;
50333;Laerm;36239;48.132;-1.210;2023-07-28T03:57:10;41.01;34.31;54.04;;
50333;Laerm;36239;48.132;-1.210;2023-07-28T03:59:36;39.81;34.31;47.04;;
50333;Laerm;36239;48.132;-1.210;2023-07-28T04:02:02;38.26;34.69;44.31;;
50333;Laerm;36239;48.132;-1.210;2023-07-28T04:04:28;38.36;34.31;43.58;;
50333;Laerm;36239;48.132;-1.210;2023-07-28T04:06:54;38.19;34.31;46.43;;
50333;Laerm;36239;48.132;-1.210;2023-07-28T04:09:20;38.37;34.31;58.48;;
50333;Laerm;36239;48.132;-1.210;2023-07-28T04:11:46;42.73;34.31;60.06;;
50333;Laerm;36239;48.132;-1.210;2023-07-28T04:14:12;49.24;35.04;71.63;;
50333;Laerm;36239;48.132;-1.210;2023-07-28T04:16:40;39.64;36.20;48.08;;
50333;Laerm;36239;48.132;-1.210;2023-07-28T04:19:06;39.59;36.20;46.78;;
50333;Laerm;36239;48.132;-1.210;2023-07-28T04:21:32;40.35;37.32;49.29;;
50333;Laerm;36239;48.132;-1.210;2023-07-28T04:23:58;40.21;36.69;47.91;;
50333;Laerm;36239;48.132;-1.210;2023-07-28T04:26:24;39.91;35.66;49.27;;
50333;Laerm;36239;48.132;-1.210;2023-07-28T04:28:50;39.28;35.94;44.39;;
50333;Laerm;36239;48.132;-1.210;2023-07-28T04:31:16;39.58;36.45;45.89;;
50333;Laerm;36239;48.132;-1.210;2023-07-28T04:33:43;39.52;35.94;45.83;;
50333;Laerm;36239;48.132;-1.210;2023-07-28T04:36:09;39.50;35.94;49.28;;
50333;Laerm;36239;48.132;-1.210;2023-07-28T04:38:35;39.57;35.94;44.08;;
50333;Laerm;36239;48.132;-1.210;2023-07-28T04:41:01;39.66;36.20;62.88;;
50333;Laerm;36239;48.132;-1.210;2023-07-28T04:43:27;38.94;35.36;45.94;;
50333;Laerm;36239;48.132;-1.210;2023-07-28T04:45:53;42.62;34.69;68.33;;
50333;Laerm;36239;48.132;-1.210;2023-07-28T04:48:19;39.95;35.36;46.25;;
50333;Laerm;36239;48.132;-1.210;2023-07-28T04:50:45;39.30;34.69;47.46;;
50333;Laerm;36239;48.132;-1.210;2023-07-28T04:53:11;40.27;36.45;46.25;;
50333;Laerm;36239;48.132;-1.210;2023-07-28T04:55:37;39.61;36.45;46.38;;
50333;Laerm;36239;48.132;-1.210;2023-07-28T04:58:03;40.61;36.69;48.69;;
50333;Laerm;36239;48.132;-1.210;2023-07-28T05:00:29;42.40;38.67;57.34;;
50333;Laerm;36239;48.132;-1.210;2023-07-28T05:02:55;46.76;37.52;74.27;;
50333;Laerm;36239;48.132;-1.210;2023-07-28T05:05:22;41.42;38.37;54.65;;
50333;Laerm;36239;48.132;-1.210;2023-07-28T05:07:48;41.42;38.67;48.08;;
50333;Laerm;36239;48.132;-1.210;2023-07-28T05:10:14;40.83;38.05;48.49;;
50333;Laerm;36239;48.132;-1.210;2023-07-28T05:12:40;40.13;37.52;51.82;;
50333;Laerm;36239;48.132;-1.210;2023-07-28T05:15:06;40.32;37.12;50.22;;
50333;Laerm;36239;48.132;-1.210;2023-07-28T05:17:36;39.81;36.69;50.77;;
50333;Laerm;36239;48.132;-1.210;2023-07-28T05:20:02;41.13;38.21;58.08;;
50333;Laerm;36239;48.132;-1.210;2023-07-28T05:22:29;41.53;38.21;58.44;;
50333;Laerm;36239;48.132;-1.210;2023-07-28T05:24:55;42.91;38.05;63.37;;
50333;Laerm;36239;48.132;-1.210;2023-07-28T05:27:20;54.87;38.95;71.73;;
50333;Laerm;36239;48.132;-1.210;2023-07-28T05:29:46;42.99;39.08;67.61;;
50333;Laerm;36239;48.132;-1.210;2023-07-28T05:32:12;47.71;40.71;74.73;;
50333;Laerm;36239;48.132;-1.210;2023-07-28T05:34:41;42.52;39.92;49.02;;
50333;Laerm;36239;48.132;-1.210;2023-07-28T05:37:07;42.57;39.08;54.52;;
50333;Laerm;36239;48.132;-1.210;2023-07-28T05:39:33;42.13;39.81;50.32;;
50333;Laerm;36239;48.132;-1.210;2023-07-28T05:41:59;41.98;39.46;51.70;;
50333;Laerm;36239;48.132;-1.210;2023-07-28T05:44:25;42.42;39.34;51.24;;
50333;Laerm;36239;48.132;-1.210;2023-07-28T05:46:51;42.21;39.34;50.62;;
50333;Laerm;36239;48.132;-1.210;2023-07-28T05:49:17;42.14;38.67;50.96;;
50333;Laerm;36239;48.132;-1.210;2023-07-28T05:51:43;48.01;38.67;66.61;;
50333;Laerm;36239;48.132;-1.210;2023-07-28T05:54:09;46.77;39.46;59.17;;
50333;Laerm;36239;48.132;-1.210;2023-07-28T05:56:35;43.65;38.67;56.73;;
50333;Laerm;36239;48.132;-1.210;2023-07-28T05:59:01;43.55;38.52;55.43;;
50333;Laerm;36239;48.132;-1.210;2023-07-28T06:01:27;42.67;37.88;58.32;;
50333;Laerm;36239;48.132;-1.210;2023-07-28T06:03:54;45.56;38.81;65.95;;
50333;Laerm;36239;48.132;-1.210;2023-07-28T06:06:25;42.40;37.32;47.98;;
50333;Laerm;36239;48.132;-1.210;2023-07-28T06:08:51;43.19;36.91;69.09;;
50333;Laerm;36239;48.132;-1.210;2023-07-28T06:11:18;42.21;37.52;52.65;;
50333;Laerm;36239;48.132;-1.210;2023-07-28T06:13:44;44.49;38.95;59.57;;
50333;Laerm;36239;48.132;-1.210;2023-07-28T06:16:12;45.40;36.91;64.65;;
50333;Laerm;36239;48.132;-1.210;2023-07-28T06:18:38;49.64;37.52;67.45;;
50333;Laerm;36239;48.132;-1.210;2023-07-28T06:21:04;43.78;37.88;69.94;;
50333;Laerm;36239;48.132;-1.210;2023-07-28T06:23:30;49.96;36.20;68.52;;
50333;Laerm;36239;48.132;-1.210;2023-07-28T06:25:56;41.69;36.69;58.48;;
50333;Laerm;36239;48.132;-1.210;2023-07-28T06:28:22;55.72;37.12;68.26;;
50333;Laerm;36239;48.132;-1.210;2023-07-28T06:30:53;48.18;36.91;67.21;;
50333;Laerm;36239;48.132;-1.210;2023-07-28T06:33:19;51.24;38.05;64.38;;
50333;Laerm;36239;48.132;-1.210;2023-07-28T06:35:45;52.55;38.95;67.86;;
50333;Laerm;36239;48.132;-1.210;2023-07-28T06:38:11;49.04;39.08;60.82;;
50333;Laerm;36239;48.132;-1.210;2023-07-28T06:40:37;44.93;38.67;58.85;;
50333;Laerm;36239;48.132;-1.210;2023-07-28T06:43:03;47.54;38.67;63.26;;
50333;Laerm;36239;48.132;-1.210;2023-07-28T06:45:29;46.92;38.37;71.01;;
50333;Laerm;36239;48.132;-1.210;2023-07-28T06:47:55;41.79;38.21;54.58;;
50333;Laerm;36239;48.132;-1.210;2023-07-28T06:50:21;41.81;37.32;49.89;;
50333;Laerm;36239;48.132;-1.210;2023-07-28T06:52:47;44.45;36.91;57.29;;
50333;Laerm;36239;48.132;-1.210;2023-07-28T06:55:14;42.17;38.21;62.16;;
50333;Laerm;36239;48.132;-1.210;2023-07-28T06:57:40;45.67;37.88;59.72;;
50333;Laerm;36239;48.132;-1.210;2023-07-28T07:00:06;51.90;38.05;67.34;;
50333;Laerm;36239;48.132;-1.210;2023-07-28T07:02:35;43.01;39.92;57.72;;
50333;Laerm;36239;48.132;-1.210;2023-07-28T07:05:01;47.85;37.70;66.44;;
50333;Laerm;36239;48.132;-1.210;2023-07-28T07:07:27;54.44;37.70;69.86;;
50333;Laerm;36239;48.132;-1.210;2023-07-28T07:09:53;58.91;56.19;70.05;;
50333;Laerm;36239;48.132;-1.210;2023-07-28T07:12:19;61.37;39.08;75.23;;
50333;Laerm;36239;48.132;-1.210;2023-07-28T07:14:47;47.39;38.81;62.07;;
50333;Laerm;36239;48.132;-1.210;2023-07-28T07:17:13;46.40;39.58;58.51;;
50333;Laerm;36239;48.132;-1.210;2023-07-28T07:19:39;45.73;38.37;69.30;;
50333;Laerm;36239;48.132;-1.210;2023-07-28T07:22:05;45.55;37.32;68.78;;
50333;Laerm;36239;48.132;-1.210;2023-07-28T07:24:31;50.56;38.05;67.79;;
50333;Laerm;36239;48.132;-1.210;2023-07-28T07:26:58;44.54;37.12;67.09;;
50333;Laerm;36239;48.132;-1.210;2023-07-28T07:29:24;43.33;40.43;54.59;;
50333;Laerm;36239;48.132;-1.210;2023-07-28T07:31:50;45.78;40.53;67.41;;
50333;Laerm;36239;48.132;-1.210;2023-07-28T07:34:20;47.89;39.81;66.23;;
50333;Laerm;36239;48.132;-1.210;2023-07-28T07:36:47;47.66;36.91;72.55;;
50333;Laerm;36239;48.132;-1.210;2023-07-28T07:39:13;52.44;36.45;69.58;;
50333;Laerm;36239;48.132;-1.210;2023-07-28T07:41:39;40.34;35.66;57.94;;
50333;Laerm;36239;48.132;-1.210;2023-07-28T07:44:05;56.36;37.12;83.33;;
50333;Laerm;36239;48.132;-1.210;2023-07-28T07:46:31;52.37;38.67;79.69;;
50333;Laerm;36239;48.132;-1.210;2023-07-28T07:48:57;55.61;36.91;82.40;;
50333;Laerm;36239;48.132;-1.210;2023-07-28T07:51:23;54.43;36.91;87.18;;
50333;Laerm;36239;48.132;-1.210;2023-07-28T07:53:49;42.77;38.37;58.95;;
50333;Laerm;36239;48.132;-1.210;2023-07-28T07:56:16;45.66;39.08;72.52;;
50333;Laerm;36239;48.132;-1.210;2023-07-28T07:58:42;44.63;38.81;60.46;;
50333;Laerm;36239;48.132;-1.210;2023-07-28T08:01:08;42.72;38.52;60.22;;
50333;Laerm;36239;48.132;-1.210;2023-07-28T08:03:34;44.54;36.91;48.95;;
50333;Laerm;36239;48.132;-1.210;2023-07-28T08:06:03;40.07;37.12;52.58;;
50333;Laerm;36239;48.132;-1.210;2023-07-28T08:08:29;41.26;36.45;56.68;;
50333;Laerm;36239;48.132;-1.210;2023-07-28T08:10:55;42.88;37.52;63.29;;
50333;Laerm;36239;48.132;-1.210;2023-07-28T08:13:22;42.27;37.88;49.62;;
50333;Laerm;36239;48.132;-1.210;2023-07-28T08:15:48;42.42;38.67;58.50;;
50333;Laerm;36239;48.132;-1.210;2023-07-28T08:18:14;52.67;38.52;80.35;;
50333;Laerm;36239;48.132;-1.210;2023-07-28T08:20:40;54.37;39.46;80.97;;
50333;Laerm;36239;48.132;-1.210;2023-07-28T08:23:06;42.96;40.13;48.92;;
50333;Laerm;36239;48.132;-1.210;2023-07-28T08:25:33;42.48;37.32;46.13;;
50333;Laerm;36239;48.132;-1.210;2023-07-28T08:28:00;42.96;38.67;58.47;;
50333;Laerm;36239;48.132;-1.210;2023-07-28T08:30:26;42.62;38.67;51.43;;
50333;Laerm;36239;48.132;-1.210;2023-07-28T08:32:52;43.23;36.20;62.86;;
50333;Laerm;36239;48.132;-1.210;2023-07-28T08:35:18;40.21;35.66;49.87;;
50333;Laerm;36239;48.132;-1.210;2023-07-28T08:37:44;39.10;35.66;47.57;;
50333;Laerm;36239;48.132;-1.210;2023-07-28T08:40:10;39.34;34.69;57.03;;
50333;Laerm;36239;48.132;-1.210;2023-07-28T08:42:38;40.20;35.66;45.83;;
50333;Laerm;36239;48.132;-1.210;2023-07-28T08:45:04;40.18;35.94;56.25;;
50333;Laerm;36239;48.132;-1.210;2023-07-28T08:47:34;39.74;35.36;49.06;;
50333;Laerm;36239;48.132;-1.210;2023-07-28T08:50:00;39.69;36.20;51.50;;
50333;Laerm;36239;48.132;-1.210;2023-07-28T08:52:26;39.88;36.45;42.98;;
50333;Laerm;36239;48.132;-1.210;2023-07-28T08:54:52;40.38;35.36;54.37;;
50333;Laerm;36239;48.132;-1.210;2023-07-28T08:57:18;41.83;36.20;61.20;;
50333;Laerm;36239;48.132;-1.210;2023-07-28T08:59:45;41.46;36.91;59.48;;
50333;Laerm;36239;48.132;-1.210;2023-07-28T09:02:16;45.71;37.52;64.81;;
50333;Laerm;36239;48.132;-1.210;2023-07-28T09:04:43;43.88;40.03;57.62;;
50333;Laerm;36239;48.132;-1.210;2023-07-28T09:07:09;40.21;35.94;50.35;;
50333;Laerm;36239;48.132;-1.210;2023-07-28T09:09:35;40.56;36.45;53.64;;
50333;Laerm;36239;48.132;-1.210;2023-07-28T09:12:02;40.08;36.69;56.13;;
50333;Laerm;36239;48.132;-1.210;2023-07-28T09:14:29;46.32;37.12;62.91;;
50333;Laerm;36239;48.132;-1.210;2023-07-28T09:16:55;42.08;36.45;65.20;;
50333;Laerm;36239;48.132;-1.210;2023-07-28T09:19:21;47.18;36.91;62.91;;
50333;Laerm;36239;48.132;-1.210;2023-07-28T09:21:56;42.63;35.66;65.34;;
50333;Laerm;36239;48.132;-1.210;2023-07-28T09:24:28;39.22;36.69;48.29;;
50333;Laerm;36239;48.132;-1.210;2023-07-28T09:26:55;42.37;37.12;64.96;;
50333;Laerm;36239;48.132;-1.210;2023-07-28T09:29:21;42.20;35.94;60.85;;
50333;Laerm;36239;48.132;-1.210;2023-07-28T09:31:48;42.70;39.21;52.90;;
50333;Laerm;36239;48.132;-1.210;2023-07-28T09:34:27;41.68;36.91;52.27;;
50333;Laerm;36239;48.132;-1.210;2023-07-28T09:36:53;41.38;37.12;52.18;;
50333;Laerm;36239;48.132;-1.210;2023-07-28T09:39:20;39.51;35.66;53.34;;
50333;Laerm;36239;48.132;-1.210;2023-07-28T09:41:46;40.71;36.20;53.00;;
50333;Laerm;36239;48.132;-1.210;2023-07-28T09:44:13;44.06;36.91;60.77;;
50333;Laerm;36239;48.132;-1.210;2023-07-28T09:46:49;49.55;39.34;72.90;;
50333;Laerm;36239;48.132;-1.210;2023-07-28T09:49:16;49.77;36.20;66.54;;
50333;Laerm;36239;48.132;-1.210;2023-07-28T09:51:46;47.70;36.20;79.38;;
50333;Laerm;36239;48.132;-1.210;2023-07-28T09:54:16;40.99;36.20;63.90;;
50333;Laerm;36239;48.132;-1.210;2023-07-28T09:56:45;44.38;35.66;68.15;;
50333;Laerm;36239;48.132;-1.210;2023-07-28T09:59:13;46.30;35.66;68.55;;
50333;Laerm;36239;48.132;-1.210;2023-07-28T10:01:43;47.52;35.36;64.13;;
50333;Laerm;36239;48.132;-1.210;2023-07-28T10:04:10;41.04;34.69;69.43;;
50333;Laerm;36239;48.132;-1.210;2023-07-28T10:06:36;41.06;34.69;61.27;;
50333;Laerm;36239;48.132;-1.210;2023-07-28T10:09:04;41.82;37.12;64.85;;
50333;Laerm;36239;48.132;-1.210;2023-07-28T10:11:31;40.80;35.04;63.74;;
50333;Laerm;36239;48.132;-1.210;2023-07-28T10:13:57;41.52;36.45;56.70;;
50333;Laerm;36239;48.132;-1.210;2023-07-28T10:16:30;42.72;36.20;58.90;;
50333;Laerm;36239;48.132;-1.210;2023-07-28T10:18:58;44.42;36.91;60.58;;
50333;Laerm;36239;48.132;-1.210;2023-07-28T10:21:27;42.67;35.66;62.47;;
50333;Laerm;36239;48.132;-1.210;2023-07-28T10:23:54;43.87;36.91;58.39;;
50333;Laerm;36239;48.132;-1.210;2023-07-28T10:26:36;42.96;36.34;64.31;;
50333;Laerm;36239;48.132;-1.210;2023-07-28T10:29:15;39.96;36.45;55.08;;
50333;Laerm;36239;48.132;-1.210;2023-07-28T10:31:54;39.62;35.04;52.79;;
50333;Laerm;36239;48.132;-1.210;2023-07-28T10:34:23;39.79;35.66;57.03;;
50333;Laerm;36239;48.132;-1.210;2023-07-28T10:36:56;41.78;36.91;61.35;;
50333;Laerm;36239;48.132;-1.210;2023-07-28T10:39:23;44.83;36.20;72.82;;
50333;Laerm;36239;48.132;-1.210;2023-07-28T10:44:22;42.62;37.52;63.69;;
50333;Laerm;36239;48.132;-1.210;2023-07-28T10:46:48;43.35;36.45;69.82;;
50333;Laerm;36239;48.132;-1.210;2023-07-28T10:49:14;44.59;37.35;72.66;;
50333;Laerm;36239;48.132;-1.210;2023-07-28T10:51:42;48.82;36.20;68.82;;
50333;Laerm;36239;48.132;-1.210;2023-07-28T10:54:08;41.88;37.12;61.45;;
50333;Laerm;36239;48.132;-1.210;2023-07-28T10:56:34;55.93;35.94;81.60;;
50333;Laerm;36239;48.132;-1.210;2023-07-28T10:59:00;53.06;37.32;83.18;;
50333;Laerm;36239;48.132;-1.210;2023-07-28T11:01:39;41.52;36.91;58.59;;
50333;Laerm;36239;48.132;-1.210;2023-07-28T11:04:16;45.01;37.12;72.64;;
50333;Laerm;36239;48.132;-1.210;2023-07-28T11:06:49;50.88;37.32;83.49;;
50333;Laerm;36239;48.132;-1.210;2023-07-28T11:09:18;41.37;37.32;65.32;;
50333;Laerm;36239;48.132;-1.210;2023-07-28T11:11:45;46.88;37.32;76.88;;
50333;Laerm;36239;48.132;-1.210;2023-07-28T11:14:11;42.80;37.12;67.36;;
50333;Laerm;36239;48.132;-1.210;2023-07-28T11:16:40;45.54;37.32;69.63;;
50333;Laerm;36239;48.132;-1.210;2023-07-28T11:19:07;48.74;36.91;80.72;;
50333;Laerm;36239;48.132;-1.210;2023-07-28T11:21:38;40.69;37.12;48.18;;
50333;Laerm;36239;48.132;-1.210;2023-07-28T11:24:04;49.64;37.12;77.93;;
50333;Laerm;36239;48.132;-1.210;2023-07-28T11:26:30;42.79;37.52;66.02;;
50333;Laerm;36239;48.132;-1.210;2023-07-28T11:28:57;41.93;37.32;66.78;;
50333;Laerm;36239;48.132;-1.210;2023-07-28T11:31:25;42.36;37.32;67.92;;
50333;Laerm;36239;48.132;-1.210;2023-07-28T11:33:54;42.41;37.32;64.16;;
50333;Laerm;36239;48.132;-1.210;2023-07-28T11:36:26;58.24;37.12;84.80;;
50333;Laerm;36239;48.132;-1.210;2023-07-28T11:38:53;41.23;37.32;58.03;;
50333;Laerm;36239;48.132;-1.210;2023-07-28T11:41:20;47.23;37.12;77.73;;
50333;Laerm;36239;48.132;-1.210;2023-07-28T11:43:47;40.23;37.12;49.72;;
50333;Laerm;36239;48.132;-1.210;2023-07-28T11:51:36;41.18;37.12;65.88;;
50333;Laerm;36239;48.132;-1.210;2023-07-28T11:54:04;40.56;37.12;55.45;;
50333;Laerm;36239;48.132;-1.210;2023-07-28T11:56:30;47.52;38.05;71.45;;
50333;Laerm;36239;48.132;-1.210;2023-07-28T11:58:56;45.58;37.88;71.26;;
50333;Laerm;36239;48.132;-1.210;2023-07-28T12:01:22;41.00;37.52;59.47;;
50333;Laerm;36239;48.132;-1.210;2023-07-28T12:03:49;42.23;37.32;65.62;;
50333;Laerm;36239;48.132;-1.210;2023-07-28T12:06:15;42.81;37.52;65.68;;
50333;Laerm;36239;48.132;-1.210;2023-07-28T12:08:41;43.72;36.45;71.86;;
50333;Laerm;36239;48.132;-1.210;2023-07-28T12:11:13;42.22;37.12;63.87;;
50333;Laerm;36239;48.132;-1.210;2023-07-28T12:13:46;51.20;37.88;78.54;;
50333;Laerm;36239;48.132;-1.210;2023-07-28T12:16:30;42.78;37.52;61.80;;
50333;Laerm;36239;48.132;-1.210;2023-07-28T12:18:57;48.05;38.52;73.00;;
50333;Laerm;36239;48.132;-1.210;2023-07-28T12:21:23;46.60;37.87;72.25;;
50333;Laerm;36239;48.132;-1.210;2023-07-28T12:23:49;49.47;37.88;75.68;;
50333;Laerm;36239;48.132;-1.210;2023-07-28T12:26:15;58.98;40.03;87.07;;
50333;Laerm;36239;48.132;-1.210;2023-07-28T12:28:41;50.33;38.67;74.54;;
50333;Laerm;36239;48.132;-1.210;2023-07-28T12:31:07;57.66;38.67;85.36;;
50333;Laerm;36239;48.132;-1.210;2023-07-28T12:33:33;52.36;38.37;83.07;;
50333;Laerm;36239;48.132;-1.210;2023-07-28T12:36:00;41.77;37.88;60.31;;
50333;Laerm;36239;48.132;-1.210;2023-07-28T12:38:26;47.60;38.52;72.06;;
50333;Laerm;36239;48.132;-1.210;2023-07-28T12:40:52;51.69;38.37;77.75;;
50333;Laerm;36239;48.132;-1.210;2023-07-28T12:43:18;56.35;39.34;83.18;;
50333;Laerm;36239;48.132;-1.210;2023-07-28T12:45:44;51.71;38.21;78.63;;
50333;Laerm;36239;48.132;-1.210;2023-07-28T12:48:10;56.51;39.08;85.01;;
50333;Laerm;36239;48.132;-1.210;2023-07-28T12:50:36;58.32;39.34;86.47;;
50333;Laerm;36239;48.132;-1.210;2023-07-28T12:53:02;59.01;38.05;79.43;;
50333;Laerm;36239;48.132;-1.210;2023-07-28T12:55:29;62.49;38.37;86.20;;
50333;Laerm;36239;48.132;-1.210;2023-07-28T12:57:55;67.20;43.44;94.48;;
50333;Laerm;36239;48.132;-1.210;2023-07-28T13:00:21;61.40;41.30;87.15;;
50333;Laerm;36239;48.132;-1.210;2023-07-28T13:02:47;62.14;41.61;83.89;;
50333;Laerm;36239;48.132;-1.210;2023-07-28T13:05:13;62.34;42.09;85.12;;
50333;Laerm;36239;48.132;-1.210;2023-07-28T13:07:41;60.80;42.09;77.91;;
50333;Laerm;36239;48.132;-1.210;2023-07-28T13:10:08;61.17;40.03;82.35;;
50333;Laerm;36239;48.132;-1.210;2023-07-28T13:12:35;60.82;41.46;88.46;;
50333;Laerm;36239;48.132;-1.210;2023-07-28T13:15:02;58.89;39.46;83.77;;
50333;Laerm;36239;48.132;-1.210;2023-07-28T13:17:28;58.70;41.53;80.02;;
50333;Laerm;36239;48.132;-1.210;2023-07-28T13:19:54;62.32;39.92;87.96;;
50333;Laerm;36239;48.132;-1.210;2023-07-28T13:22:20;62.82;37.88;78.85;;
50333;Laerm;36239;48.132;-1.210;2023-07-28T13:24:46;61.07;42.59;71.63;;
50333;Laerm;36239;48.132;-1.210;2023-07-28T13:27:12;63.00;42.47;79.74;;
50333;Laerm;36239;48.132;-1.210;2023-07-28T13:29:38;62.95;41.61;81.07;;
50333;Laerm;36239;48.132;-1.210;2023-07-28T13:32:04;65.62;40.03;92.93;;
50333;Laerm;36239;48.132;-1.210;2023-07-28T13:34:40;63.64;40.03;81.03;;
50333;Laerm;36239;48.132;-1.210;2023-07-28T13:37:06;64.75;48.90;78.52;;